sensor_id;sensor_type;location;lat;lon;timestamp;temperature;humidity
2897;DHT22;1458;49.728;9.228;2023-05-14T00:01:36;9.70;99.90
2897;DHT22;1458;49.728;9.228;2023-05-14T00:04:04;9.70;99.90
2897;DHT22;1458;49.728;9.228;2023-05-14T00:06:31;9.70;99.90
2897;DHT22;1458;49.728;9.228;2023-05-14T00:08:59;9.60;99.90
2897;DHT22;1458;49.728;9.228;2023-05-14T00:11:26;9.70;99.90
2897;DHT22;1458;49.728;9.228;2023-05-14T00:13:54;9.70;99.90
2897;DHT22;1458;49.728;9.228;2023-05-14T00:16:22;9.60;99.90
2897;DHT22;1458;49.728;9.228;2023-05-14T00:18:50;9.60;99.90
2897;DHT22;1458;49.728;9.228;2023-05-14T00:21:17;9.50;99.90
2897;DHT22;1458;49.728;9.228;2023-05-14T00:23:45;9.50;99.90
2897;DHT22;1458;49.728;9.228;2023-05-14T00:26:12;9.50;99.90
2897;DHT22;1458;49.728;9.228;2023-05-14T00:28:43;9.40;99.90
2897;DHT22;1458;49.728;9.228;2023-05-14T00:31:10;9.40;99.90
2897;DHT22;1458;49.728;9.228;2023-05-14T00:33:39;9.30;99.90
2897;DHT22;1458;49.728;9.228;2023-05-14T00:36:07;9.20;99.90
2897;DHT22;1458;49.728;9.228;2023-05-14T00:38:34;9.40;99.90
2897;DHT22;1458;49.728;9.228;2023-05-14T00:41:02;9.40;99.90
2897;DHT22;1458;49.728;9.228;2023-05-14T00:43:30;9.40;99.90
2897;DHT22;1458;49.728;9.228;2023-05-14T00:45:58;9.50;99.90
2897;DHT22;1458;49.728;9.228;2023-05-14T00:48:26;9.30;99.90
2897;DHT22;1458;49.728;9.228;2023-05-14T00:50:55;9.10;99.90
2897;DHT22;1458;49.728;9.228;2023-05-14T00:53:25;9.10;99.90
2897;DHT22;1458;49.728;9.228;2023-05-14T00:55:53;9.10;99.90
2897;DHT22;1458;49.728;9.228;2023-05-14T00:58:21;9.00;99.90
2897;DHT22;1458;49.728;9.228;2023-05-14T01:00:49;9.00;99.90
2897;DHT22;1458;49.728;9.228;2023-05-14T01:03:16;8.90;99.90
2897;DHT22;1458;49.728;9.228;2023-05-14T01:05:52;9.00;99.90
2897;DHT22;1458;49.728;9.228;2023-05-14T01:08:30;8.80;99.90
2897;DHT22;1458;49.728;9.228;2023-05-14T01:11:03;8.70;99.90
2897;DHT22;1458;49.728;9.228;2023-05-14T01:13:40;8.60;99.90
2897;DHT22;1458;49.728;9.228;2023-05-14T01:16:12;8.50;99.90
2897;DHT22;1458;49.728;9.228;2023-05-14T01:18:42;8.30;99.90
2897;DHT22;1458;49.728;9.228;2023-05-14T01:21:33;8.40;99.90
2897;DHT22;1458;49.728;9.228;2023-05-14T01:24:03;8.50;99.90
2897;DHT22;1458;49.728;9.228;2023-05-14T01:26:31;8.80;99.90
2897;DHT22;1458;49.728;9.228;2023-05-14T01:29:01;8.80;99.90
2897;DHT22;1458;49.728;9.228;2023-05-14T01:31:34;8.80;99.90
2897;DHT22;1458;49.728;9.228;2023-05-14T01:34:04;8.70;99.90
2897;DHT22;1458;49.728;9.228;2023-05-14T01:36:34;8.70;99.90
2897;DHT22;1458;49.728;9.228;2023-05-14T01:39:02;8.80;99.90
2897;DHT22;1458;49.728;9.228;2023-05-14T01:41:30;8.80;99.90
2897;DHT22;1458;49.728;9.228;2023-05-14T01:44:00;8.70;99.90
2897;DHT22;1458;49.728;9.228;2023-05-14T01:46:30;8.70;99.90
2897;DHT22;1458;49.728;9.228;2023-05-14T01:48:58;8.80;99.90
2897;DHT22;1458;49.728;9.228;2023-05-14T01:51:26;8.90;99.90
2897;DHT22;1458;49.728;9.228;2023-05-14T01:53:55;9.00;99.90
2897;DHT22;1458;49.728;9.228;2023-05-14T01:56:23;8.80;99.90
2897;DHT22;1458;49.728;9.228;2023-05-14T01:58:50;8.80;99.90
2897;DHT22;1458;49.728;9.228;2023-05-14T02:01:18;8.90;99.90
2897;DHT22;1458;49.728;9.228;2023-05-14T02:03:46;8.90;99.90
2897;DHT22;1458;49.728;9.228;2023-05-14T02:06:14;8.90;99.90
2897;DHT22;1458;49.728;9.228;2023-05-14T02:08:41;8.90;99.90
2897;DHT22;1458;49.728;9.228;2023-05-14T02:11:10;8.90;99.90
2897;DHT22;1458;49.728;9.228;2023-05-14T02:13:38;9.00;99.90
2897;DHT22;1458;49.728;9.228;2023-05-14T02:16:05;9.10;99.90
2897;DHT22;1458;49.728;9.228;2023-05-14T02:18:34;9.00;99.90
2897;DHT22;1458;49.728;9.228;2023-05-14T02:21:01;8.90;99.90
2897;DHT22;1458;49.728;9.228;2023-05-14T02:23:29;8.90;99.90
2897;DHT22;1458;49.728;9.228;2023-05-14T02:25:56;8.90;99.90
2897;DHT22;1458;49.728;9.228;2023-05-14T02:28:25;9.10;99.90
2897;DHT22;1458;49.728;9.228;2023-05-14T02:30:57;9.20;99.90
2897;DHT22;1458;49.728;9.228;2023-05-14T02:33:25;9.20;99.90
2897;DHT22;1458;49.728;9.228;2023-05-14T02:35:53;9.10;99.90
2897;DHT22;1458;49.728;9.228;2023-05-14T02:38:21;9.30;99.90
2897;DHT22;1458;49.728;9.228;2023-05-14T02:40:49;9.40;99.90
2897;DHT22;1458;49.728;9.228;2023-05-14T02:43:17;9.50;99.90
2897;DHT22;1458;49.728;9.228;2023-05-14T02:45:46;9.60;99.90
2897;DHT22;1458;49.728;9.228;2023-05-14T02:48:13;9.50;99.90
2897;DHT22;1458;49.728;9.228;2023-05-14T02:50:41;9.60;99.90
2897;DHT22;1458;49.728;9.228;2023-05-14T02:53:08;9.50;99.90
2897;DHT22;1458;49.728;9.228;2023-05-14T02:55:36;9.50;99.90
2897;DHT22;1458;49.728;9.228;2023-05-14T02:58:03;9.60;99.90
2897;DHT22;1458;49.728;9.228;2023-05-14T03:00:30;9.70;99.90
2897;DHT22;1458;49.728;9.228;2023-05-14T03:02:59;9.70;99.90
2897;DHT22;1458;49.728;9.228;2023-05-14T03:05:27;9.70;99.90
2897;DHT22;1458;49.728;9.228;2023-05-14T03:07:54;9.70;99.90
2897;DHT22;1458;49.728;9.228;2023-05-14T03:10:22;9.80;99.90
2897;DHT22;1458;49.728;9.228;2023-05-14T03:12:49;9.70;99.90
2897;DHT22;1458;49.728;9.228;2023-05-14T03:15:17;9.70;99.90
2897;DHT22;1458;49.728;9.228;2023-05-14T03:17:44;9.70;99.90
2897;DHT22;1458;49.728;9.228;2023-05-14T03:20:14;9.80;99.90
2897;DHT22;1458;49.728;9.228;2023-05-14T03:22:45;9.70;99.90
2897;DHT22;1458;49.728;9.228;2023-05-14T03:25:13;9.80;99.90
2897;DHT22;1458;49.728;9.228;2023-05-14T03:27:40;9.80;99.90
2897;DHT22;1458;49.728;9.228;2023-05-14T03:30:08;9.80;99.90
2897;DHT22;1458;49.728;9.228;2023-05-14T03:32:37;9.70;99.90
2897;DHT22;1458;49.728;9.228;2023-05-14T03:35:05;9.80;99.90
2897;DHT22;1458;49.728;9.228;2023-05-14T03:37:34;9.70;99.90
2897;DHT22;1458;49.728;9.228;2023-05-14T03:40:02;9.70;99.90
2897;DHT22;1458;49.728;9.228;2023-05-14T03:42:31;9.70;99.90
2897;DHT22;1458;49.728;9.228;2023-05-14T03:44:58;9.70;99.90
2897;DHT22;1458;49.728;9.228;2023-05-14T03:47:26;9.70;99.90
2897;DHT22;1458;49.728;9.228;2023-05-14T03:49:54;9.80;99.90
2897;DHT22;1458;49.728;9.228;2023-05-14T03:52:21;9.80;99.90
2897;DHT22;1458;49.728;9.228;2023-05-14T03:54:50;9.80;99.90
2897;DHT22;1458;49.728;9.228;2023-05-14T03:57:17;9.80;99.90
2897;DHT22;1458;49.728;9.228;2023-05-14T03:59:45;9.90;99.90
2897;DHT22;1458;49.728;9.228;2023-05-14T04:02:13;9.90;99.90
2897;DHT22;1458;49.728;9.228;2023-05-14T04:04:40;10.00;99.90
2897;DHT22;1458;49.728;9.228;2023-05-14T04:07:08;9.90;99.90
2897;DHT22;1458;49.728;9.228;2023-05-14T04:09:35;9.90;99.90
2897;DHT22;1458;49.728;9.228;2023-05-14T04:12:05;10.00;99.90
2897;DHT22;1458;49.728;9.228;2023-05-14T04:14:33;10.00;99.90
2897;DHT22;1458;49.728;9.228;2023-05-14T04:17:02;10.00;99.90
2897;DHT22;1458;49.728;9.228;2023-05-14T04:19:30;10.00;99.90
2897;DHT22;1458;49.728;9.228;2023-05-14T04:21:57;10.10;99.90
2897;DHT22;1458;49.728;9.228;2023-05-14T04:24:25;10.00;99.90
2897;DHT22;1458;49.728;9.228;2023-05-14T04:26:52;10.00;99.90
2897;DHT22;1458;49.728;9.228;2023-05-14T04:29:21;10.00;99.90
2897;DHT22;1458;49.728;9.228;2023-05-14T04:31:49;10.00;99.90
2897;DHT22;1458;49.728;9.228;2023-05-14T04:34:16;10.00;99.90
2897;DHT22;1458;49.728;9.228;2023-05-14T04:36:44;10.00;99.90
2897;DHT22;1458;49.728;9.228;2023-05-14T04:39:11;10.00;99.90
2897;DHT22;1458;49.728;9.228;2023-05-14T04:41:39;10.00;99.90
2897;DHT22;1458;49.728;9.228;2023-05-14T04:44:07;10.10;99.90
2897;DHT22;1458;49.728;9.228;2023-05-14T04:46:36;10.20;99.90
2897;DHT22;1458;49.728;9.228;2023-05-14T04:49:03;10.20;99.90
2897;DHT22;1458;49.728;9.228;2023-05-14T04:51:30;10.20;99.90
2897;DHT22;1458;49.728;9.228;2023-05-14T04:53:58;10.30;99.90
2897;DHT22;1458;49.728;9.228;2023-05-14T04:56:25;10.30;99.90
2897;DHT22;1458;49.728;9.228;2023-05-14T04:58:53;10.30;99.90
2897;DHT22;1458;49.728;9.228;2023-05-14T05:01:20;10.40;99.90
2897;DHT22;1458;49.728;9.228;2023-05-14T05:03:49;10.40;99.90
2897;DHT22;1458;49.728;9.228;2023-05-14T05:06:17;10.50;99.90
2897;DHT22;1458;49.728;9.228;2023-05-14T05:08:44;10.50;99.90
2897;DHT22;1458;49.728;9.228;2023-05-14T05:11:12;10.40;99.90
2897;DHT22;1458;49.728;9.228;2023-05-14T05:13:39;10.30;99.90
2897;DHT22;1458;49.728;9.228;2023-05-14T05:16:07;10.20;99.90
2897;DHT22;1458;49.728;9.228;2023-05-14T05:18:34;10.30;99.90
2897;DHT22;1458;49.728;9.228;2023-05-14T05:21:04;10.20;99.90
2897;DHT22;1458;49.728;9.228;2023-05-14T05:23:31;10.30;99.90
2897;DHT22;1458;49.728;9.228;2023-05-14T05:25:59;10.40;99.90
2897;DHT22;1458;49.728;9.228;2023-05-14T05:28:26;10.60;99.90
2897;DHT22;1458;49.728;9.228;2023-05-14T05:30:54;10.50;99.90
2897;DHT22;1458;49.728;9.228;2023-05-14T05:33:21;10.60;99.90
2897;DHT22;1458;49.728;9.228;2023-05-14T05:35:49;10.70;99.90
2897;DHT22;1458;49.728;9.228;2023-05-14T05:38:18;10.80;99.90
2897;DHT22;1458;49.728;9.228;2023-05-14T05:40:46;10.90;99.90
2897;DHT22;1458;49.728;9.228;2023-05-14T05:43:14;10.90;99.90
2897;DHT22;1458;49.728;9.228;2023-05-14T05:45:41;10.90;99.90
2897;DHT22;1458;49.728;9.228;2023-05-14T05:48:09;10.80;99.90
2897;DHT22;1458;49.728;9.228;2023-05-14T05:50:36;10.80;99.90
2897;DHT22;1458;49.728;9.228;2023-05-14T05:53:03;10.90;99.90
2897;DHT22;1458;49.728;9.228;2023-05-14T05:55:32;10.90;99.90
2897;DHT22;1458;49.728;9.228;2023-05-14T05:58:00;10.90;99.90
2897;DHT22;1458;49.728;9.228;2023-05-14T06:00:27;11.00;99.90
2897;DHT22;1458;49.728;9.228;2023-05-14T06:02:55;11.10;99.90
2897;DHT22;1458;49.728;9.228;2023-05-14T06:05:23;11.10;99.90
2897;DHT22;1458;49.728;9.228;2023-05-14T06:07:51;11.00;99.90
2897;DHT22;1458;49.728;9.228;2023-05-14T06:10:18;11.20;99.90
2897;DHT22;1458;49.728;9.228;2023-05-14T06:12:47;11.60;99.90
2897;DHT22;1458;49.728;9.228;2023-05-14T06:15:15;11.70;99.90
2897;DHT22;1458;49.728;9.228;2023-05-14T06:17:42;11.90;99.90
2897;DHT22;1458;49.728;9.228;2023-05-14T06:20:10;11.90;99.90
2897;DHT22;1458;49.728;9.228;2023-05-14T06:22:38;11.90;99.90
2897;DHT22;1458;49.728;9.228;2023-05-14T06:25:07;11.90;99.90
2897;DHT22;1458;49.728;9.228;2023-05-14T06:27:35;11.90;99.90
2897;DHT22;1458;49.728;9.228;2023-05-14T06:30:05;11.90;99.90
2897;DHT22;1458;49.728;9.228;2023-05-14T06:32:33;12.10;99.90
2897;DHT22;1458;49.728;9.228;2023-05-14T06:35:00;12.30;99.90
2897;DHT22;1458;49.728;9.228;2023-05-14T06:37:28;12.40;99.90
2897;DHT22;1458;49.728;9.228;2023-05-14T06:39:56;12.60;99.90
2897;DHT22;1458;49.728;9.228;2023-05-14T06:42:24;12.50;99.90
2897;DHT22;1458;49.728;9.228;2023-05-14T06:44:52;12.50;99.90
2897;DHT22;1458;49.728;9.228;2023-05-14T06:47:21;12.70;99.90
2897;DHT22;1458;49.728;9.228;2023-05-14T06:49:48;12.70;99.90
2897;DHT22;1458;49.728;9.228;2023-05-14T06:52:15;12.80;99.90
2897;DHT22;1458;49.728;9.228;2023-05-14T06:54:43;12.80;99.90
2897;DHT22;1458;49.728;9.228;2023-05-14T06:57:10;12.90;99.90
2897;DHT22;1458;49.728;9.228;2023-05-14T06:59:38;12.90;99.90
2897;DHT22;1458;49.728;9.228;2023-05-14T07:02:05;13.30;99.90
2897;DHT22;1458;49.728;9.228;2023-05-14T07:04:35;13.50;99.90
2897;DHT22;1458;49.728;9.228;2023-05-14T07:07:02;13.80;99.90
2897;DHT22;1458;49.728;9.228;2023-05-14T07:09:30;13.70;99.90
2897;DHT22;1458;49.728;9.228;2023-05-14T07:11:57;13.80;99.90
2897;DHT22;1458;49.728;9.228;2023-05-14T07:14:25;14.10;99.90
2897;DHT22;1458;49.728;9.228;2023-05-14T07:16:52;14.30;99.90
2897;DHT22;1458;49.728;9.228;2023-05-14T07:19:20;14.70;99.90
2897;DHT22;1458;49.728;9.228;2023-05-14T07:21:49;14.80;99.90
2897;DHT22;1458;49.728;9.228;2023-05-14T07:24:17;15.10;99.90
2897;DHT22;1458;49.728;9.228;2023-05-14T07:26:44;15.20;99.90
2897;DHT22;1458;49.728;9.228;2023-05-14T07:29:12;15.50;99.90
2897;DHT22;1458;49.728;9.228;2023-05-14T07:31:39;16.00;99.90
2897;DHT22;1458;49.728;9.228;2023-05-14T07:34:07;16.20;99.90
2897;DHT22;1458;49.728;9.228;2023-05-14T07:36:35;16.30;99.90
2897;DHT22;1458;49.728;9.228;2023-05-14T07:39:04;16.20;99.90
2897;DHT22;1458;49.728;9.228;2023-05-14T07:41:32;16.00;99.90
2897;DHT22;1458;49.728;9.228;2023-05-14T07:43:59;15.90;99.90
2897;DHT22;1458;49.728;9.228;2023-05-14T07:46:27;15.90;99.90
2897;DHT22;1458;49.728;9.228;2023-05-14T07:48:54;15.70;99.90
2897;DHT22;1458;49.728;9.228;2023-05-14T07:51:21;15.70;99.90
2897;DHT22;1458;49.728;9.228;2023-05-14T07:53:49;16.10;99.90
2897;DHT22;1458;49.728;9.228;2023-05-14T07:56:18;16.40;99.30
2897;DHT22;1458;49.728;9.228;2023-05-14T07:58:45;16.40;99.30
2897;DHT22;1458;49.728;9.228;2023-05-14T08:01:12;16.80;99.40
2897;DHT22;1458;49.728;9.228;2023-05-14T08:03:40;17.10;98.20
2897;DHT22;1458;49.728;9.228;2023-05-14T08:06:08;17.10;96.70
2897;DHT22;1458;49.728;9.228;2023-05-14T08:08:35;17.20;94.10
2897;DHT22;1458;49.728;9.228;2023-05-14T08:11:03;17.30;95.00
2897;DHT22;1458;49.728;9.228;2023-05-14T08:13:32;17.40;94.10
2897;DHT22;1458;49.728;9.228;2023-05-14T08:15:59;17.60;94.90
2897;DHT22;1458;49.728;9.228;2023-05-14T08:18:27;17.60;94.60
2897;DHT22;1458;49.728;9.228;2023-05-14T08:20:54;17.60;94.80
2897;DHT22;1458;49.728;9.228;2023-05-14T08:23:22;17.70;92.70
2897;DHT22;1458;49.728;9.228;2023-05-14T08:25:49;17.70;93.00
2897;DHT22;1458;49.728;9.228;2023-05-14T08:28:17;17.50;94.30
2897;DHT22;1458;49.728;9.228;2023-05-14T08:30:46;17.90;92.20
2897;DHT22;1458;49.728;9.228;2023-05-14T08:33:13;18.00;89.10
2897;DHT22;1458;49.728;9.228;2023-05-14T08:35:40;18.20;88.80
2897;DHT22;1458;49.728;9.228;2023-05-14T08:38:08;18.30;82.80
2897;DHT22;1458;49.728;9.228;2023-05-14T08:40:35;18.10;82.30
2897;DHT22;1458;49.728;9.228;2023-05-14T08:43:03;18.50;86.00
2897;DHT22;1458;49.728;9.228;2023-05-14T08:45:32;18.60;79.40
2897;DHT22;1458;49.728;9.228;2023-05-14T08:48:02;18.10;77.30
2897;DHT22;1458;49.728;9.228;2023-05-14T08:50:34;18.20;76.60
2897;DHT22;1458;49.728;9.228;2023-05-14T08:53:02;18.10;75.90
2897;DHT22;1458;49.728;9.228;2023-05-14T08:55:30;18.30;77.50
2897;DHT22;1458;49.728;9.228;2023-05-14T08:57:58;18.40;77.70
2897;DHT22;1458;49.728;9.228;2023-05-14T09:00:26;18.40;74.70
2897;DHT22;1458;49.728;9.228;2023-05-14T09:02:53;18.30;74.20
2897;DHT22;1458;49.728;9.228;2023-05-14T09:05:22;18.10;77.10
2897;DHT22;1458;49.728;9.228;2023-05-14T09:07:50;18.20;74.30
2897;DHT22;1458;49.728;9.228;2023-05-14T09:10:17;18.20;78.20
2897;DHT22;1458;49.728;9.228;2023-05-14T09:12:45;18.30;74.90
2897;DHT22;1458;49.728;9.228;2023-05-14T09:15:13;17.80;74.90
2897;DHT22;1458;49.728;9.228;2023-05-14T09:17:40;17.80;77.20
2897;DHT22;1458;49.728;9.228;2023-05-14T09:20:09;18.00;76.80
2897;DHT22;1458;49.728;9.228;2023-05-14T09:22:40;18.00;76.30
2897;DHT22;1458;49.728;9.228;2023-05-14T09:25:09;17.90;75.60
2897;DHT22;1458;49.728;9.228;2023-05-14T09:27:38;18.00;76.00
2897;DHT22;1458;49.728;9.228;2023-05-14T09:30:07;18.30;78.00
2897;DHT22;1458;49.728;9.228;2023-05-14T09:32:39;18.70;77.90
2897;DHT22;1458;49.728;9.228;2023-05-14T09:35:13;18.70;76.70
2897;DHT22;1458;49.728;9.228;2023-05-14T09:37:47;18.60;75.40
2897;DHT22;1458;49.728;9.228;2023-05-14T09:40:17;18.50;75.90
2897;DHT22;1458;49.728;9.228;2023-05-14T09:42:45;18.60;73.20
2897;DHT22;1458;49.728;9.228;2023-05-14T09:45:14;18.50;73.50
2897;DHT22;1458;49.728;9.228;2023-05-14T09:47:42;18.60;74.50
2897;DHT22;1458;49.728;9.228;2023-05-14T09:50:10;18.20;73.80
2897;DHT22;1458;49.728;9.228;2023-05-14T09:52:38;18.30;70.80
2897;DHT22;1458;49.728;9.228;2023-05-14T09:55:08;18.10;72.80
2897;DHT22;1458;49.728;9.228;2023-05-14T09:57:36;18.20;74.60
2897;DHT22;1458;49.728;9.228;2023-05-14T10:00:04;18.00;73.80
2897;DHT22;1458;49.728;9.228;2023-05-14T10:02:35;17.80;73.10
2897;DHT22;1458;49.728;9.228;2023-05-14T10:05:06;17.50;76.30
2897;DHT22;1458;49.728;9.228;2023-05-14T10:07:38;17.50;76.80
2897;DHT22;1458;49.728;9.228;2023-05-14T10:10:12;17.50;77.40
2897;DHT22;1458;49.728;9.228;2023-05-14T10:12:45;17.50;76.30
2897;DHT22;1458;49.728;9.228;2023-05-14T10:15:22;17.20;77.10
2897;DHT22;1458;49.728;9.228;2023-05-14T10:17:59;17.00;77.90
2897;DHT22;1458;49.728;9.228;2023-05-14T10:20:30;17.00;78.70
2897;DHT22;1458;49.728;9.228;2023-05-14T10:22:57;16.80;77.80
2897;DHT22;1458;49.728;9.228;2023-05-14T10:25:26;16.90;78.80
2897;DHT22;1458;49.728;9.228;2023-05-14T10:27:54;16.90;78.60
2897;DHT22;1458;49.728;9.228;2023-05-14T10:30:22;16.80;78.80
2897;DHT22;1458;49.728;9.228;2023-05-14T10:33:04;16.80;80.40
2897;DHT22;1458;49.728;9.228;2023-05-14T10:35:50;16.80;81.70
2897;DHT22;1458;49.728;9.228;2023-05-14T10:38:22;17.00;81.20
2897;DHT22;1458;49.728;9.228;2023-05-14T10:40:55;17.10;80.80
2897;DHT22;1458;49.728;9.228;2023-05-14T10:43:26;17.20;80.10
2897;DHT22;1458;49.728;9.228;2023-05-14T10:45:56;17.40;80.70
2897;DHT22;1458;49.728;9.228;2023-05-14T10:48:24;17.40;82.10
2897;DHT22;1458;49.728;9.228;2023-05-14T10:50:52;17.40;80.40
2897;DHT22;1458;49.728;9.228;2023-05-14T10:53:31;17.50;80.00
2897;DHT22;1458;49.728;9.228;2023-05-14T10:56:04;17.40;78.80
2897;DHT22;1458;49.728;9.228;2023-05-14T10:58:34;17.50;78.00
2897;DHT22;1458;49.728;9.228;2023-05-14T11:01:03;17.70;77.80
2897;DHT22;1458;49.728;9.228;2023-05-14T11:03:38;17.50;76.20
2897;DHT22;1458;49.728;9.228;2023-05-14T11:06:08;17.70;80.00
2897;DHT22;1458;49.728;9.228;2023-05-14T11:08:38;17.80;78.50
2897;DHT22;1458;49.728;9.228;2023-05-14T11:11:08;18.00;78.30
2897;DHT22;1458;49.728;9.228;2023-05-14T11:13:36;17.90;77.70
2897;DHT22;1458;49.728;9.228;2023-05-14T11:16:04;17.90;78.20
2897;DHT22;1458;49.728;9.228;2023-05-14T11:18:33;18.10;76.20
2897;DHT22;1458;49.728;9.228;2023-05-14T11:21:03;18.10;75.30
2897;DHT22;1458;49.728;9.228;2023-05-14T11:23:30;18.10;74.70
2897;DHT22;1458;49.728;9.228;2023-05-14T11:25:58;18.20;74.80
2897;DHT22;1458;49.728;9.228;2023-05-14T11:28:27;18.10;78.30
2897;DHT22;1458;49.728;9.228;2023-05-14T11:30:55;18.20;77.10
2897;DHT22;1458;49.728;9.228;2023-05-14T11:33:22;18.20;73.90
2897;DHT22;1458;49.728;9.228;2023-05-14T11:35:51;18.10;72.00
2897;DHT22;1458;49.728;9.228;2023-05-14T11:38:19;18.00;73.80
2897;DHT22;1458;49.728;9.228;2023-05-14T11:40:50;18.20;77.30
2897;DHT22;1458;49.728;9.228;2023-05-14T11:43:19;18.30;74.90
2897;DHT22;1458;49.728;9.228;2023-05-14T11:45:50;18.60;74.00
2897;DHT22;1458;49.728;9.228;2023-05-14T11:48:18;18.60;72.90
2897;DHT22;1458;49.728;9.228;2023-05-14T11:50:47;18.90;71.00
2897;DHT22;1458;49.728;9.228;2023-05-14T11:53:16;19.00;70.10
2897;DHT22;1458;49.728;9.228;2023-05-14T11:55:45;19.10;70.00
2897;DHT22;1458;49.728;9.228;2023-05-14T11:58:13;19.40;71.10
2897;DHT22;1458;49.728;9.228;2023-05-14T12:00:43;19.30;70.00
2897;DHT22;1458;49.728;9.228;2023-05-14T12:03:12;19.50;66.60
2897;DHT22;1458;49.728;9.228;2023-05-14T12:05:40;19.50;65.30
2897;DHT22;1458;49.728;9.228;2023-05-14T12:08:20;19.50;65.70
2897;DHT22;1458;49.728;9.228;2023-05-14T12:10:48;19.80;64.80
2897;DHT22;1458;49.728;9.228;2023-05-14T12:13:15;19.80;65.80
2897;DHT22;1458;49.728;9.228;2023-05-14T12:15:47;20.20;63.90
2897;DHT22;1458;49.728;9.228;2023-05-14T12:18:23;20.60;64.90
2897;DHT22;1458;49.728;9.228;2023-05-14T12:20:51;20.40;67.80
2897;DHT22;1458;49.728;9.228;2023-05-14T12:23:24;20.40;64.90
2897;DHT22;1458;49.728;9.228;2023-05-14T12:25:52;20.10;62.10
2897;DHT22;1458;49.728;9.228;2023-05-14T12:28:22;20.00;61.20
2897;DHT22;1458;49.728;9.228;2023-05-14T12:30:55;19.80;61.80
2897;DHT22;1458;49.728;9.228;2023-05-14T12:33:26;19.80;67.30
2897;DHT22;1458;49.728;9.228;2023-05-14T12:35:53;20.10;63.30
2897;DHT22;1458;49.728;9.228;2023-05-14T12:38:23;20.00;64.90
2897;DHT22;1458;49.728;9.228;2023-05-14T12:40:51;20.00;61.90
2897;DHT22;1458;49.728;9.228;2023-05-14T12:43:18;19.60;63.30
2897;DHT22;1458;49.728;9.228;2023-05-14T12:45:47;19.40;63.70
2897;DHT22;1458;49.728;9.228;2023-05-14T12:48:14;19.30;65.90
2897;DHT22;1458;49.728;9.228;2023-05-14T12:50:45;19.20;64.80
2897;DHT22;1458;49.728;9.228;2023-05-14T12:53:13;19.20;65.00
2897;DHT22;1458;49.728;9.228;2023-05-14T12:55:42;19.00;68.10
2897;DHT22;1458;49.728;9.228;2023-05-14T12:58:09;19.10;69.80
2897;DHT22;1458;49.728;9.228;2023-05-14T13:00:36;19.40;71.80
2897;DHT22;1458;49.728;9.228;2023-05-14T13:03:04;19.50;67.60
2897;DHT22;1458;49.728;9.228;2023-05-14T13:05:31;19.70;68.50
2897;DHT22;1458;49.728;9.228;2023-05-14T13:08:00;20.10;66.90
2897;DHT22;1458;49.728;9.228;2023-05-14T13:10:28;20.70;66.00
2897;DHT22;1458;49.728;9.228;2023-05-14T13:12:56;20.60;65.20
2897;DHT22;1458;49.728;9.228;2023-05-14T13:15:23;20.80;61.90
2897;DHT22;1458;49.728;9.228;2023-05-14T13:17:51;20.50;64.10
2897;DHT22;1458;49.728;9.228;2023-05-14T13:20:18;20.30;63.30
2897;DHT22;1458;49.728;9.228;2023-05-14T13:22:46;20.20;62.10
2897;DHT22;1458;49.728;9.228;2023-05-14T13:25:15;19.90;64.30
2897;DHT22;1458;49.728;9.228;2023-05-14T13:27:42;19.60;66.70
2897;DHT22;1458;49.728;9.228;2023-05-14T13:30:10;19.70;65.40
2897;DHT22;1458;49.728;9.228;2023-05-14T13:32:38;19.70;64.30
2897;DHT22;1458;49.728;9.228;2023-05-14T13:35:06;19.50;65.20
2897;DHT22;1458;49.728;9.228;2023-05-14T13:37:35;19.30;64.70
2897;DHT22;1458;49.728;9.228;2023-05-14T13:40:03;19.10;64.10
2897;DHT22;1458;49.728;9.228;2023-05-14T13:42:34;19.10;66.60
2897;DHT22;1458;49.728;9.228;2023-05-14T13:45:02;19.00;65.10
2897;DHT22;1458;49.728;9.228;2023-05-14T13:47:30;18.90;65.30
2897;DHT22;1458;49.728;9.228;2023-05-14T13:49:58;18.60;65.60
2897;DHT22;1458;49.728;9.228;2023-05-14T13:52:25;18.60;67.70
2897;DHT22;1458;49.728;9.228;2023-05-14T13:54:53;18.50;66.80
2897;DHT22;1458;49.728;9.228;2023-05-14T13:57:21;18.70;65.80
2897;DHT22;1458;49.728;9.228;2023-05-14T13:59:50;18.80;65.60
2897;DHT22;1458;49.728;9.228;2023-05-14T14:02:17;18.80;65.30
2897;DHT22;1458;49.728;9.228;2023-05-14T14:04:45;18.90;66.40
2897;DHT22;1458;49.728;9.228;2023-05-14T14:07:12;18.90;65.60
2897;DHT22;1458;49.728;9.228;2023-05-14T14:09:39;19.00;66.10
2897;DHT22;1458;49.728;9.228;2023-05-14T14:12:07;19.10;65.40
2897;DHT22;1458;49.728;9.228;2023-05-14T14:14:35;19.30;67.40
2897;DHT22;1458;49.728;9.228;2023-05-14T14:17:04;19.70;64.80
2897;DHT22;1458;49.728;9.228;2023-05-14T14:19:33;19.90;63.60
2897;DHT22;1458;49.728;9.228;2023-05-14T14:22:01;20.10;64.50
2897;DHT22;1458;49.728;9.228;2023-05-14T14:24:32;20.20;61.10
2897;DHT22;1458;49.728;9.228;2023-05-14T14:26:59;20.60;61.60
2897;DHT22;1458;49.728;9.228;2023-05-14T14:29:27;20.80;58.70
2897;DHT22;1458;49.728;9.228;2023-05-14T14:31:56;20.70;58.70
2897;DHT22;1458;49.728;9.228;2023-05-14T14:34:24;20.50;59.50
2897;DHT22;1458;49.728;9.228;2023-05-14T14:36:52;20.20;60.10
2897;DHT22;1458;49.728;9.228;2023-05-14T14:39:19;19.80;61.30
2897;DHT22;1458;49.728;9.228;2023-05-14T14:41:50;19.70;61.70
2897;DHT22;1458;49.728;9.228;2023-05-14T14:44:17;19.30;61.50
2897;DHT22;1458;49.728;9.228;2023-05-14T14:46:45;18.90;65.30
2897;DHT22;1458;49.728;9.228;2023-05-14T14:49:13;18.50;63.90
2897;DHT22;1458;49.728;9.228;2023-05-14T14:51:42;18.50;64.50
2897;DHT22;1458;49.728;9.228;2023-05-14T14:54:09;18.40;66.70
2897;DHT22;1458;49.728;9.228;2023-05-14T14:56:37;18.30;65.90
2897;DHT22;1458;49.728;9.228;2023-05-14T14:59:04;18.40;66.70
2897;DHT22;1458;49.728;9.228;2023-05-14T15:01:31;18.50;66.10
2897;DHT22;1458;49.728;9.228;2023-05-14T15:03:59;18.60;66.90
2897;DHT22;1458;49.728;9.228;2023-05-14T15:06:26;18.60;67.40
2897;DHT22;1458;49.728;9.228;2023-05-14T15:08:55;18.70;66.70
2897;DHT22;1458;49.728;9.228;2023-05-14T15:11:23;18.90;67.10
2897;DHT22;1458;49.728;9.228;2023-05-14T15:13:51;19.20;67.80
2897;DHT22;1458;49.728;9.228;2023-05-14T15:16:19;19.70;65.00
2897;DHT22;1458;49.728;9.228;2023-05-14T15:18:46;19.90;63.30
2897;DHT22;1458;49.728;9.228;2023-05-14T15:21:14;20.00;60.70
2897;DHT22;1458;49.728;9.228;2023-05-14T15:23:41;19.70;61.70
2897;DHT22;1458;49.728;9.228;2023-05-14T15:26:10;19.60;66.70
2897;DHT22;1458;49.728;9.228;2023-05-14T15:28:37;19.60;62.20
2897;DHT22;1458;49.728;9.228;2023-05-14T15:31:05;19.60;62.20
2897;DHT22;1458;49.728;9.228;2023-05-14T15:33:32;19.50;63.30
2897;DHT22;1458;49.728;9.228;2023-05-14T15:36:00;19.60;60.30
2897;DHT22;1458;49.728;9.228;2023-05-14T15:38:27;19.50;60.80
2897;DHT22;1458;49.728;9.228;2023-05-14T15:40:55;19.50;60.10
2897;DHT22;1458;49.728;9.228;2023-05-14T15:43:24;19.50;59.40
2897;DHT22;1458;49.728;9.228;2023-05-14T15:45:51;19.60;59.70
2897;DHT22;1458;49.728;9.228;2023-05-14T15:48:18;19.70;59.30
2897;DHT22;1458;49.728;9.228;2023-05-14T15:50:47;19.90;59.10
2897;DHT22;1458;49.728;9.228;2023-05-14T15:53:15;19.90;57.40
2897;DHT22;1458;49.728;9.228;2023-05-14T15:55:42;20.20;57.10
2897;DHT22;1458;49.728;9.228;2023-05-14T15:58:10;20.20;56.90
2897;DHT22;1458;49.728;9.228;2023-05-14T16:00:39;20.10;57.80
2897;DHT22;1458;49.728;9.228;2023-05-14T16:03:07;20.10;56.90
2897;DHT22;1458;49.728;9.228;2023-05-14T16:05:34;19.60;56.10
2897;DHT22;1458;49.728;9.228;2023-05-14T16:08:02;19.40;56.90
2897;DHT22;1458;49.728;9.228;2023-05-14T16:10:30;19.20;57.00
2897;DHT22;1458;49.728;9.228;2023-05-14T16:12:57;19.00;59.20